CW5455 Weather Reports


Display with metric or nautical units.
time (UTC)temp
F
wind
direction
speed
MPH
gust
MPH
rain 1hr
in
rain 24hr
in
rain mn
in
humidity
%
barometer
mb
20260506195812 47 67 0.0 4.0 0.00 0.20 0.20 90 1010.8
20260506195306 48 67 2.0 4.0 0.00 0.20 0.20 90 1010.8
20260506194807 48 67 2.0 3.0 0.00 0.20 0.20 89 1010.9
20260506194305 48 67 1.0 3.0 0.00 0.20 0.20 89 1010.7
20260506193807 48 67 2.0 3.0 0.00 0.20 0.20 89 1010.7
20260506193256 49 241 0.0 2.0 0.00 0.20 0.20 89 1010.6
20260506192749 49 240 0.0 0.0 0.00 0.20 0.20 88 1010.6
20260506192243 49 240 0.0 0.0 0.00 0.20 0.20 88 1010.5
20260506191737 50 240 0.0 0.0 0.00 0.20 0.20 88 1010.3
20260506191234 50 240 0.0 0.0 0.00 0.20 0.20 87 1010.3
20260506190733 50 240 0.0 1.0 0.00 0.20 0.20 87 1010.4
20260506190232 50 240 0.0 2.0 0.00 0.20 0.20 86 1010.3
20260506185732 50 240 1.0 2.0 0.00 0.20 0.20 85 1010.3
20260506184732 51 238 1.0 5.0 0.00 0.20 0.20 84 1010.0
20260506184231 51 238 2.0 5.0 0.00 0.20 0.20 84 1009.9
20260506183732 51 241 2.0 3.0 0.00 0.20 0.20 84 1009.9
20260506183236 51 223 2.0 3.0 0.00 0.20 0.20 83 1009.8
20260506182736 52 239 2.0 4.0 0.00 0.20 0.20 82 1009.8
20260506182232 52 250 2.0 4.0 0.00 0.20 0.20 82 1009.8
20260506181735 52 213 2.0 3.0 0.00 0.21 0.20 81 1009.7
20260506181229 52 241 1.0 3.0 0.00 0.21 0.20 82 1009.7
20260506180726 52 241 2.0 4.0 0.00 0.22 0.20 81 1009.7
20260506180246 53 246 2.0 4.0 0.00 0.23 0.20 81 1009.6
20260506173705 52 196 3.0 8.0 0.00 0.24 0.20 83 1009.6
20260506173205 52 204 5.0 8.0 0.00 0.24 0.20 83 1009.5
20260506172702 52 213 4.0 6.0 0.00 0.24 0.20 83 1009.5
20260506172204 52 215 3.0 6.0 0.00 0.24 0.20 83 1009.5
20260506171703 52 161 4.0 8.0 0.00 0.24 0.20 83 1009.5
20260506171203 52 196 4.0 8.0 0.00 0.24 0.20 83 1009.3
20260506170659 52 196 3.0 4.0 0.00 0.24 0.20 85 1009.3
20260506165652 52 207 0.0 6.0 0.00 0.24 0.20 84 1009.1
20260506164149 52 207 5.0 8.0 0.00 0.24 0.20 84 1009.0
20260506163144 52 182 2.0 7.0 0.00 0.24 0.20 86 1009.2
20260506162643 52 217 5.0 8.0 0.00 0.24 0.20 85 1009.2
20260506162155 52 196 3.0 8.0 0.00 0.24 0.20 86 1009.1
20260506161141 52 215 3.0 8.0 0.00 0.24 0.20 86 1008.9
20260506160641 51 202 3.0 9.0 0.00 0.24 0.20 86 1009.0
20260506160147 51 190 4.0 9.0 0.00 0.24 0.20 86 1009.2
20260506155635 51 207 3.0 7.0 0.00 0.24 0.20 87 1009.2
20260506155137 52 205 2.0 5.0 0.00 0.24 0.20 88 1009.2
20260506154634 51 217 3.0 5.0 0.00 0.24 0.20 87 1009.1
20260506154131 51 217 2.0 5.0 0.00 0.24 0.20 87 1009.1
20260506153624 51 216 2.0 4.0 0.00 0.24 0.20 87 1009.1
20260506153116 51 215 2.0 8.0 0.00 0.24 0.20 87 1009.0
20260506152614 51 215 3.0 8.0 0.00 0.24 0.20 87 1008.9
20260506151612 51 238 1.0 5.0 0.01 0.24 0.20 88 1008.9
20260506151106 51 267 2.0 5.0 0.01 0.24 0.20 88 1009.0
20260506150603 51 250 1.0 3.0 0.01 0.24 0.20 88 1009.2
20260506150118 51 245 1.0 3.0 0.01 0.24 0.20 89 1009.1
20260506145605 51 221 1.0 3.0 0.01 0.23 0.20 88 1009.3
20260506145103 51 235 1.0 4.0 0.02 0.23 0.20 89 1009.3
20260506144603 51 247 2.0 4.0 0.02 0.23 0.20 89 1009.2
20260506144100 51 13 2.0 3.0 0.02 0.23 0.20 89 1009.2
20260506143617 51 28 2.0 3.0 0.02 0.23 0.20 89 1009.2
20260506143053 51 259 1.0 6.0 0.03 0.23 0.20 89 1009.2
20260506142550 50 255 1.0 6.0 0.06 0.23 0.20 89 1009.3
20260506141547 50 259 0.0 3.0 0.06 0.23 0.19 89 1009.3
20260506141045 50 259 0.0 3.0 0.07 0.23 0.19 89 1009.3
20260506140537 50 259 1.0 4.0 0.08 0.23 0.19 89 1009.3
20260506135534 50 245 3.0 7.0 0.09 0.14 0.19 90 1009.2
20260506135031 49 246 3.0 8.0 0.09 0.14 0.18 90 1009.1
20260506134533 49 215 3.0 10.0 0.11 0.14 0.18 90 1009.1
20260506134036 49 261 6.0 10.0 0.13 0.14 0.17 90 1008.9
20260506133531 49 245 6.0 12.0 0.14 0.14 0.17 90 1008.8
20260506133031 49 225 4.0 12.0 0.14 0.14 0.16 89 1009.0
20260506132533 49 241 4.0 10.0 0.13 0.14 0.14 89 1009.1
20260506132031 49 238 4.0 12.0 0.13 0.14 0.13 89 1009.1
20260506131031 49 230 5.0 10.0 0.12 0.14 0.12 88 1008.9
20260506130110 50 249 4.0 12.0 0.10 0.14 0.10 87 1008.6
20260506125524 50 242 4.0 14.0 0.10 0.04 0.09 86 1008.6
20260506125021 51 236 4.0 20.0 0.09 0.04 0.09 85 1008.4
20260506124521 52 227 9.0 22.0 0.07 0.04 0.06 83 1008.3
20260506124017 53 197 15.0 22.0 0.04 0.04 0.04 83 1008.0
20260506123515 54 197 6.0 12.0 0.03 0.04 0.02 84 1007.7
20260506123014 55 215 4.0 12.0 0.02 0.04 0.02 82 1007.3
20260506122514 56 194 6.0 12.0 0.01 0.04 0.01 80 1007.1
20260506122014 57 186 7.0 11.0 0.00 0.04 0.00 79 1006.8
20260506121518 57 217 4.0 15.0 0.00 0.04 0.00 78 1006.6
20260506120512 58 205 3.0 7.0 0.00 0.04 0.00 73 1006.3
20260506120048 58 200 5.0 7.0 0.00 0.04 0.00 72 1006.3
20260506115510 58 215 2.0 4.0 0.00 0.04 0.00 72 1006.2
20260506115011 58 224 2.0 4.0 0.00 0.04 0.00 72 1006.2
20260506114500 58 227 1.0 4.0 0.00 0.04 0.00 72 1006.2
20260506113957 58 223 2.0 4.0 0.00 0.04 0.00 72 1006.2
20260506113457 58 236 2.0 4.0 0.00 0.04 0.00 72 1006.2
20260506112954 58 211 2.0 4.0 0.00 0.04 0.00 72 1006.2
20260506112457 58 211 2.0 5.0 0.00 0.04 0.00 72 1006.1
20260506111957 58 182 3.0 5.0 0.00 0.04 0.00 73 1006.1
20260506105942 58 227 2.0 5.0 0.00 0.04 0.00 72 1006.2
20260506105441 58 232 2.0 5.0 0.00 0.04 0.00 72 1006.2
20260506103931 58 243 2.0 5.0 0.00 0.04 0.00 71 1006.1
20260506103431 58 226 2.0 4.0 0.00 0.04 0.00 71 1006.2
20260506102933 59 265 2.0 6.0 0.00 0.04 0.00 72 1006.2
20260506102431 59 217 3.0 6.0 0.00 0.04 0.00 72 1006.2
20260506101934 58 212 4.0 6.0 0.00 0.04 0.00 72 1006.2
20260506101431 58 200 2.0 4.0 0.00 0.04 0.00 74 1006.2
20260506100934 58 205 3.0 5.0 0.00 0.04 0.00 73 1006.3
20260506100432 58 190 3.0 6.0 0.00 0.04 0.00 73 1006.4
20260506095931 58 216 3.0 7.0 0.00 0.04 0.00 73 1006.3
20260506095432 58 219 4.0 7.0 0.00 0.04 0.00 73 1006.3
20260506094431 58 200 5.0 8.0 0.00 0.04 0.00 74 1006.2
20260506093933 59 186 3.0 8.0 0.00 0.04 0.00 73 1006.3
20260506093433 59 177 4.0 8.0 0.00 0.04 0.00 73 1006.3
20260506092932 59 225 4.0 7.0 0.00 0.04 0.00 74 1006.3
20260506092431 59 197 5.0 7.0 0.00 0.04 0.00 76 1006.2
20260506091932 58 196 4.0 7.0 0.00 0.04 0.00 75 1006.3
20260506091433 58 5 2.0 5.0 0.00 0.04 0.00 78 1006.2
20260506090932 57 190 2.0 8.0 0.00 0.04 0.00 78 1006.3
20260506090434 56 198 3.0 8.0 0.00 0.04 0.00 78 1006.3
20260506085425 56 200 4.0 7.0 0.00 0.04 0.00 79 1006.4
20260506084923 56 209 3.0 5.0 0.00 0.04 0.00 80 1006.2
20260506083920 56 236 3.0 6.0 0.00 0.04 0.00 79 1006.3
20260506082912 55 180 2.0 4.0 0.00 0.04 0.00 83 1006.4
20260506082409 55 184 3.0 4.0 0.00 0.04 0.00 83 1006.2
20260506081908 55 199 1.0 4.0 0.00 0.04 0.00 83 1006.2
20260506081408 55 176 3.0 5.0 0.00 0.04 0.00 84 1006.3
20260506080903 55 147 2.0 5.0 0.00 0.04 0.00 84 1006.2
20260506080404 54 209 2.0 4.0 0.00 0.04 0.00 84 1006.2
20260506072839 53 173 2.0 4.0 0.00 0.04 0.00 84 1006.4
20260506072336 53 171 2.0 4.0 0.00 0.04 0.00 83 1006.5
20260506071834 53 171 1.0 4.0 0.00 0.04 0.00 83 1006.4
20260506071333 53 171 3.0 4.0 0.00 0.04 0.00 83 1006.5
20260506070838 53 169 2.0 2.0 0.00 0.04 0.00 83 1006.4
20260506070333 53 69 0.0 0.0 0.00 0.04 0.00 83 1006.5
20260506062305 52 69 0.0 0.0 0.00 0.04 0.00 84 1006.5
20260506061303 52 69 0.0 0.0 0.00 0.04 0.00 84 1006.5
20260506051238 49 69 1.0 2.0 0.00 0.04 0.00 89 1006.5
20260506044729 49 69 1.0 3.0 0.00 0.04 0.00 88 1006.5
20260506044227 49 69 2.0 3.0 0.00 0.04 0.00 88 1006.5
20260506043726 49 69 0.0 3.0 0.00 0.04 0.00 88 1006.5
20260506043223 49 69 1.0 3.0 0.00 0.04 0.00 88 1006.6
20260506042722 49 69 2.0 4.0 0.00 0.04 0.00 88 1006.6
20260506042220 49 69 2.0 4.0 0.00 0.04 0.00 88 1006.6
20260506041716 49 51 2.0 4.0 0.00 0.04 0.00 88 1006.5
20260506041214 49 51 2.0 4.0 0.00 0.04 0.00 88 1006.6
20260506040711 49 51 2.0 5.0 0.00 0.04 0.00 89 1006.7
20260506040212 49 48 3.0 5.0 0.00 0.04 0.00 89 1006.8
20260506035709 48 48 4.0 5.0 0.00 0.04 0.00 90 1006.7
20260506035209 48 69 2.0 5.0 0.00 0.04 0.00 90 1006.9
20260506034208 48 56 3.0 4.0 0.00 0.04 0.00 90 1007.1
20260506033206 48 58 2.0 6.0 0.00 0.04 0.00 90 1007.3
20260506032704 48 57 3.0 6.0 0.00 0.04 0.00 90 1007.2
20260506032206 47 51 0.0 3.0 0.00 0.04 0.00 90 1007.2
20260506031704 47 51 0.0 0.0 0.00 0.04 0.00 89 1007.4
20260506031207 48 51 0.0 0.0 0.00 0.04 0.00 89 1007.4
20260506030155 48 51 0.0 2.0 0.00 0.04 0.00 89 1007.6
20260506025651 48 51 0.0 2.0 0.00 0.04 0.00 89 1007.7
20260506025149 49 51 0.0 3.0 0.00 0.04 0.00 89 1007.6
20260506024642 49 51 2.0 3.0 0.00 0.04 0.00 89 1007.6
20260506024143 49 50 0.0 2.0 0.00 0.04 0.00 89 1007.6
20260506023636 49 50 0.0 2.0 0.00 0.04 0.00 89 1007.7
20260506023135 49 50 0.0 2.0 0.00 0.04 0.00 89 1007.8
20260506022136 49 50 1.0 3.0 0.00 0.04 0.00 88 1008.0
20260506021634 50 50 0.0 4.0 0.00 0.04 0.00 88 1008.0
20260506021129 50 50 2.0 4.0 0.00 0.04 0.00 87 1008.0
20260506020629 50 74 2.0 4.0 0.00 0.04 0.00 87 1008.0
20260506015614 50 113 2.0 3.0 0.00 0.04 0.00 87 1008.0
20260506015110 50 113 2.0 4.0 0.00 0.04 0.00 87 1008.2
20260506014607 50 140 2.0 4.0 0.00 0.04 0.00 87 1008.2
20260506014110 50 57 2.0 4.0 0.00 0.04 0.00 87 1008.3
20260506013605 50 99 1.0 3.0 0.00 0.04 0.00 87 1008.3
20260506013103 50 101 2.0 4.0 0.00 0.04 0.00 87 1008.4
20260506012603 50 49 3.0 4.0 0.00 0.04 0.00 88 1008.3
20260506012055 51 69 2.0 2.0 0.00 0.04 0.00 88 1008.4
20260506011557 50 69 1.0 4.0 0.00 0.04 0.00 87 1008.5
20260506010552 50 65 0.0 2.0 0.00 0.04 0.00 87 1008.5
20260506005532 50 65 1.0 2.0 0.00 0.04 0.00 87 1008.6
20260506005031 50 65 1.0 3.0 0.00 0.04 0.00 87 1008.5
20260506004539 50 65 2.0 3.0 0.00 0.04 0.00 88 1008.7
20260506004036 50 63 2.0 4.0 0.00 0.04 0.00 88 1008.7
20260506003031 50 32 4.0 6.0 0.00 0.04 0.00 88 1008.6
20260506002532 50 53 4.0 5.0 0.00 0.04 0.00 88 1008.7
20260506002029 50 51 4.0 5.0 0.00 0.04 0.00 88 1008.8
20260506001527 50 57 2.0 4.0 0.00 0.04 0.00 88 1008.9
20260506001028 50 59 2.0 4.0 0.00 0.04 0.00 88 1009.1
20260506000527 51 84 2.0 2.0 0.00 0.04 0.00 88 1009.1
20260506000042 51 84 0.0 2.0 0.00 0.04 0.00 88 1009.2
20260505235520 50 84 1.0 3.0 0.00 0.04 0.00 87 1009.2
20260505235010 51 86 2.0 3.0 0.00 0.04 0.00 88 1009.3
20260505234514 50 57 2.0 4.0 0.00 0.04 0.00 88 1009.1
20260505233947 50 48 2.0 6.0 0.00 0.04 0.00 88 1008.9
20260505233449 50 59 4.0 6.0 0.00 0.04 0.00 88 1008.9
20260505232952 50 77 3.0 5.0 0.00 0.04 0.00 89 1009.0
20260505232446 50 63 2.0 5.0 0.00 0.04 0.00 89 1009.0
20260505231939 50 65 3.0 5.0 0.00 0.04 0.00 89 1009.1
20260505231436 50 82 3.0 5.0 0.00 0.04 0.00 89 1009.1
20260505230935 50 65 2.0 5.0 0.00 0.04 0.00 90 1009.2
20260505230437 50 69 3.0 5.0 0.00 0.04 0.00 90 1009.3
20260505225932 49 69 4.0 5.0 0.00 0.04 0.00 90 1009.5
20260505225436 49 61 2.0 5.0 0.00 0.04 0.00 90 1009.6
20260505224937 49 69 4.0 5.0 0.00 0.04 0.00 90 1009.6
20260505224434 49 60 1.0 4.0 0.00 0.04 0.00 90 1009.7
20260505223932 49 58 2.0 4.0 0.00 0.04 0.00 90 1009.6
20260505222932 49 65 2.0 4.0 0.00 0.04 0.00 90 1009.7
20260505222438 49 63 1.0 4.0 0.00 0.04 0.00 90 1009.7
20260505221434 49 76 0.0 4.0 0.00 0.04 0.00 89 1009.7
20260505220430 49 65 2.0 4.0 0.00 0.04 0.00 89 1009.7
20260505215929 49 63 2.0 4.0 0.00 0.04 0.04 89 1009.7
20260505215431 49 67 2.0 3.0 0.00 0.04 0.04 89 1009.7
20260505214928 50 73 2.0 3.0 0.00 0.04 0.04 88 1009.7
20260505214422 50 117 2.0 5.0 0.00 0.04 0.04 89 1009.8
20260505213419 50 62 2.0 5.0 0.00 0.04 0.04 88 1009.8
20260505212413 51 54 4.0 5.0 0.00 0.04 0.04 89 1010.0
20260505211907 51 67 2.0 4.0 0.00 0.04 0.04 89 1009.9
20260505211406 51 67 2.0 3.0 0.00 0.04 0.04 89 1009.9
20260505210905 51 67 2.0 3.0 0.00 0.04 0.04 89 1010.0
20260505210404 51 67 2.0 3.0 0.00 0.04 0.04 88 1010.1
20260505205903 51 67 2.0 3.0 0.00 0.04 0.04 88 1010.1
20260505205403 52 67 0.0 3.0 0.00 0.04 0.04 88 1010.1
20260505204903 52 67 1.0 4.0 0.00 0.04 0.04 89 1010.1
20260505204403 52 67 1.0 4.0 0.00 0.04 0.04 88 1010.0
20260505203402 52 61 2.0 6.0 0.00 0.04 0.04 89 1009.9
20260505202858 52 52 4.0 6.0 0.00 0.04 0.04 89 1009.8
20260505202350 52 61 3.0 6.0 0.00 0.04 0.04 89 1009.8
20260505201840 52 67 4.0 5.0 0.00 0.04 0.04 88 1009.7
20260505201338 52 98 3.0 5.0 0.00 0.04 0.04 88 1009.8
20260505200839 52 67 2.0 4.0 0.00 0.04 0.04 88 1009.8
20260505200335 52 48 2.0 5.0 0.00 0.04 0.04 88 1009.8